sensor_id;sensor_type;location;lat;lon;timestamp;pressure;altitude;pressure_sealevel;temperature;humidity
61318;BME280;47201;40.428;-8.436;2023-02-19T00:01:57;101576.41;;;9.03;100.00
61318;BME280;47201;40.428;-8.436;2023-02-19T00:04:18;101572.00;;;9.00;100.00
61318;BME280;47201;40.428;-8.436;2023-02-19T00:06:19;101574.63;;;9.00;100.00
61318;BME280;47201;40.428;-8.436;2023-02-19T00:08:39;101573.75;;;9.01;100.00
61318;BME280;47201;40.428;-8.436;2023-02-19T00:10:39;101567.78;;;9.07;100.00
61318;BME280;47201;40.428;-8.436;2023-02-19T00:13:01;101564.44;;;9.16;100.00
61318;BME280;47201;40.428;-8.436;2023-02-19T00:15:02;101559.50;;;9.31;100.00
61318;BME280;47201;40.428;-8.436;2023-02-19T00:17:22;101562.25;;;9.38;100.00
61318;BME280;47201;40.428;-8.436;2023-02-19T00:19:22;101567.50;;;9.42;100.00
61318;BME280;47201;40.428;-8.436;2023-02-19T00:21:42;101563.94;;;9.35;100.00
61318;BME280;47201;40.428;-8.436;2023-02-19T00:23:51;101564.03;;;9.42;100.00
61318;BME280;47201;40.428;-8.436;2023-02-19T00:25:51;101566.53;;;9.34;100.00
61318;BME280;47201;40.428;-8.436;2023-02-19T00:28:10;101561.06;;;9.21;100.00
61318;BME280;47201;40.428;-8.436;2023-02-19T00:30:12;101556.59;;;9.14;100.00
61318;BME280;47201;40.428;-8.436;2023-02-19T00:32:14;101557.34;;;9.07;100.00
61318;BME280;47201;40.428;-8.436;2023-02-19T00:34:15;101559.84;;;9.02;100.00
61318;BME280;47201;40.428;-8.436;2023-02-19T00:36:35;101549.41;;;9.01;100.00
61318;BME280;47201;40.428;-8.436;2023-02-19T00:38:36;101545.94;;;9.00;100.00
61318;BME280;47201;40.428;-8.436;2023-02-19T00:40:37;101541.59;;;9.02;100.00
61318;BME280;47201;40.428;-8.436;2023-02-19T00:42:57;101536.28;;;8.96;100.00
61318;BME280;47201;40.428;-8.436;2023-02-19T00:44:57;101537.91;;;8.89;100.00
61318;BME280;47201;40.428;-8.436;2023-02-19T00:46:58;101541.28;;;8.84;100.00
61318;BME280;47201;40.428;-8.436;2023-02-19T00:49:07;101542.94;;;8.80;100.00
61318;BME280;47201;40.428;-8.436;2023-02-19T00:51:08;101533.44;;;8.82;100.00
61318;BME280;47201;40.428;-8.436;2023-02-19T00:53:08;101534.41;;;8.89;100.00
61318;BME280;47201;40.428;-8.436;2023-02-19T00:55:27;101530.31;;;9.02;100.00
61318;BME280;47201;40.428;-8.436;2023-02-19T00:57:28;101530.63;;;9.20;100.00
61318;BME280;47201;40.428;-8.436;2023-02-19T00:59:29;101529.19;;;9.40;100.00
61318;BME280;47201;40.428;-8.436;2023-02-19T01:01:30;101526.13;;;9.65;100.00
61318;BME280;47201;40.428;-8.436;2023-02-19T01:03:48;101517.78;;;9.88;100.00
61318;BME280;47201;40.428;-8.436;2023-02-19T01:05:50;101523.31;;;10.13;100.00
61318;BME280;47201;40.428;-8.436;2023-02-19T01:07:50;101519.31;;;10.37;100.00
61318;BME280;47201;40.428;-8.436;2023-02-19T01:09:52;101517.78;;;10.54;100.00
61318;BME280;47201;40.428;-8.436;2023-02-19T01:11:53;101514.50;;;10.74;100.00
61318;BME280;47201;40.428;-8.436;2023-02-19T01:13:57;101511.94;;;10.78;99.08
61318;BME280;47201;40.428;-8.436;2023-02-19T01:16:03;101513.75;;;10.83;98.04
61318;BME280;47201;40.428;-8.436;2023-02-19T01:18:23;101513.75;;;10.84;97.36
61318;BME280;47201;40.428;-8.436;2023-02-19T01:20:23;101514.75;;;10.97;94.73
61318;BME280;47201;40.428;-8.436;2023-02-19T01:22:25;101511.34;;;11.07;93.73
61318;BME280;47201;40.428;-8.436;2023-02-19T01:24:25;101503.53;;;11.09;92.65
61318;BME280;47201;40.428;-8.436;2023-02-19T01:26:45;101504.34;;;11.06;91.57
61318;BME280;47201;40.428;-8.436;2023-02-19T01:29:04;101503.53;;;11.09;91.50
61318;BME280;47201;40.428;-8.436;2023-02-19T01:31:06;101502.59;;;11.02;92.11
61318;BME280;47201;40.428;-8.436;2023-02-19T01:33:07;101505.19;;;11.01;93.05
61318;BME280;47201;40.428;-8.436;2023-02-19T01:35:27;101500.66;;;10.86;93.62
61318;BME280;47201;40.428;-8.436;2023-02-19T01:37:27;101495.31;;;10.72;93.49
61318;BME280;47201;40.428;-8.436;2023-02-19T01:39:28;101492.66;;;10.70;93.79
61318;BME280;47201;40.428;-8.436;2023-02-19T01:41:28;101489.19;;;10.68;94.29
61318;BME280;47201;40.428;-8.436;2023-02-19T01:43:32;101493.34;;;10.54;94.56
61318;BME280;47201;40.428;-8.436;2023-02-19T01:45:33;101482.88;;;10.49;95.66
61318;BME280;47201;40.428;-8.436;2023-02-19T01:47:34;101487.97;;;10.38;96.00
61318;BME280;47201;40.428;-8.436;2023-02-19T01:49:36;101481.75;;;10.31;96.40
61318;BME280;47201;40.428;-8.436;2023-02-19T01:51:46;101480.91;;;10.32;95.97
61318;BME280;47201;40.428;-8.436;2023-02-19T01:53:50;101479.09;;;10.27;95.87
61318;BME280;47201;40.428;-8.436;2023-02-19T01:55:53;101473.06;;;10.36;94.59
61318;BME280;47201;40.428;-8.436;2023-02-19T01:57:56;101477.53;;;10.43;93.88
61318;BME280;47201;40.428;-8.436;2023-02-19T02:00:00;101473.22;;;10.45;93.21
61318;BME280;47201;40.428;-8.436;2023-02-19T02:02:12;101471.56;;;10.52;92.09
61318;BME280;47201;40.428;-8.436;2023-02-19T02:04:13;101475.06;;;10.54;91.61
61318;BME280;47201;40.428;-8.436;2023-02-19T02:06:24;101468.09;;;10.54;91.64
61318;BME280;47201;40.428;-8.436;2023-02-19T02:08:27;101468.09;;;10.53;90.83
61318;BME280;47201;40.428;-8.436;2023-02-19T02:10:47;101460.31;;;10.57;90.95
61318;BME280;47201;40.428;-8.436;2023-02-19T02:12:51;101466.34;;;10.53;90.15
61318;BME280;47201;40.428;-8.436;2023-02-19T02:15:10;101468.06;;;10.51;91.17
61318;BME280;47201;40.428;-8.436;2023-02-19T02:17:30;101467.13;;;10.46;91.32
61318;BME280;47201;40.428;-8.436;2023-02-19T02:23:56;101461.22;;;10.64;88.58
61318;BME280;47201;40.428;-8.436;2023-02-19T02:26:33;101463.13;;;10.79;87.01
61318;BME280;47201;40.428;-8.436;2023-02-19T02:28:45;101453.69;;;10.93;85.84
61318;BME280;47201;40.428;-8.436;2023-02-19T02:35:32;101457.09;;;10.88;85.19
61318;BME280;47201;40.428;-8.436;2023-02-19T02:37:34;101451.88;;;10.86;85.12
61318;BME280;47201;40.428;-8.436;2023-02-19T02:39:36;101463.13;;;10.81;85.05
61318;BME280;47201;40.428;-8.436;2023-02-19T02:41:57;101459.66;;;10.82;85.19
61318;BME280;47201;40.428;-8.436;2023-02-19T02:44:32;101459.63;;;10.80;85.36
61318;BME280;47201;40.428;-8.436;2023-02-19T02:46:51;101451.78;;;10.80;83.23
61318;BME280;47201;40.428;-8.436;2023-02-19T02:49:19;101456.19;;;10.84;84.24
61318;BME280;47201;40.428;-8.436;2023-02-19T02:51:28;101455.34;;;10.87;84.17
61318;BME280;47201;40.428;-8.436;2023-02-19T02:55:59;101447.75;;;11.16;81.62
61318;BME280;47201;40.428;-8.436;2023-02-19T02:58:06;101456.47;;;11.15;81.00
61318;BME280;47201;40.428;-8.436;2023-02-19T03:00:08;101459.13;;;11.24;80.29
61318;BME280;47201;40.428;-8.436;2023-02-19T03:02:10;101447.00;;;11.31;79.64
61318;BME280;47201;40.428;-8.436;2023-02-19T03:04:34;101450.53;;;11.38;78.94
61318;BME280;47201;40.428;-8.436;2023-02-19T03:06:57;101452.34;;;11.47;78.66
61318;BME280;47201;40.428;-8.436;2023-02-19T03:09:22;101447.91;;;11.38;78.76
61318;BME280;47201;40.428;-8.436;2023-02-19T03:11:48;101442.69;;;11.38;78.44
61318;BME280;47201;40.428;-8.436;2023-02-19T03:14:50;101440.19;;;11.61;75.89
61318;BME280;47201;40.428;-8.436;2023-02-19T03:17:37;101448.16;;;11.75;75.50
61318;BME280;47201;40.428;-8.436;2023-02-19T03:20:18;101444.75;;;11.96;73.84
61318;BME280;47201;40.428;-8.436;2023-02-19T03:22:24;101450.06;;;12.04;73.08
61318;BME280;47201;40.428;-8.436;2023-02-19T03:24:48;101448.28;;;11.97;73.38
61318;BME280;47201;40.428;-8.436;2023-02-19T03:27:28;101448.28;;;12.00;73.24
61318;BME280;47201;40.428;-8.436;2023-02-19T03:29:30;101440.34;;;11.87;73.57
61318;BME280;47201;40.428;-8.436;2023-02-19T03:31:36;101438.59;;;11.83;74.37
61318;BME280;47201;40.428;-8.436;2023-02-19T03:33:56;101441.22;;;11.86;73.60
61318;BME280;47201;40.428;-8.436;2023-02-19T03:36:17;101439.56;;;11.98;72.97
61318;BME280;47201;40.428;-8.436;2023-02-19T03:38:29;101439.56;;;12.01;72.47
61318;BME280;47201;40.428;-8.436;2023-02-19T03:40:36;101436.06;;;11.99;72.70
61318;BME280;47201;40.428;-8.436;2023-02-19T03:45:05;101436.94;;;11.99;72.00
61318;BME280;47201;40.428;-8.436;2023-02-19T03:54:18;101427.28;;;11.90;72.15
61318;BME280;47201;40.428;-8.436;2023-02-19T04:05:54;101424.66;;;11.94;70.76
61318;BME280;47201;40.428;-8.436;2023-02-19T04:08:00;101422.97;;;11.99;70.77
61318;BME280;47201;40.428;-8.436;2023-02-19T04:10:07;101422.94;;;11.97;70.86
61318;BME280;47201;40.428;-8.436;2023-02-19T04:12:13;101421.16;;;11.95;70.65
61318;BME280;47201;40.428;-8.436;2023-02-19T04:14:19;101412.44;;;11.96;70.85
61318;BME280;47201;40.428;-8.436;2023-02-19T04:16:40;101428.13;;;11.91;71.13
61318;BME280;47201;40.428;-8.436;2023-02-19T04:18:43;101427.22;;;11.84;70.83
61318;BME280;47201;40.428;-8.436;2023-02-19T04:20:45;101419.38;;;11.87;71.57
61318;BME280;47201;40.428;-8.436;2023-02-19T04:22:47;101425.50;;;11.86;70.46
61318;BME280;47201;40.428;-8.436;2023-02-19T04:24:50;101425.53;;;11.94;69.85
61318;BME280;47201;40.428;-8.436;2023-02-19T04:26:51;101413.38;;;12.02;69.52
61318;BME280;47201;40.428;-8.436;2023-02-19T04:28:52;101422.09;;;11.98;70.16
61318;BME280;47201;40.428;-8.436;2023-02-19T04:30:53;101419.47;;;12.00;69.31
61318;BME280;47201;40.428;-8.436;2023-02-19T04:32:55;101420.34;;;12.00;69.28
61318;BME280;47201;40.428;-8.436;2023-02-19T04:35:14;101422.09;;;12.03;68.95
61318;BME280;47201;40.428;-8.436;2023-02-19T04:37:19;101417.75;;;12.08;68.96
61318;BME280;47201;40.428;-8.436;2023-02-19T04:39:20;101423.00;;;12.10;68.59
61318;BME280;47201;40.428;-8.436;2023-02-19T04:41:21;101420.38;;;12.05;68.90
61318;BME280;47201;40.428;-8.436;2023-02-19T04:43:21;101423.84;;;12.07;68.64
61318;BME280;47201;40.428;-8.436;2023-02-19T04:45:22;101424.75;;;12.06;68.48
61318;BME280;47201;40.428;-8.436;2023-02-19T04:47:23;101429.94;;;11.98;68.91
61318;BME280;47201;40.428;-8.436;2023-02-19T04:49:23;101422.97;;;12.02;68.60
61318;BME280;47201;40.428;-8.436;2023-02-19T04:51:24;101426.47;;;11.99;68.68
61318;BME280;47201;40.428;-8.436;2023-02-19T04:53:24;101416.84;;;12.00;68.24
61318;BME280;47201;40.428;-8.436;2023-02-19T04:55:44;101418.59;;;12.07;67.93
61318;BME280;47201;40.428;-8.436;2023-02-19T04:58:03;101423.88;;;12.02;67.99
61318;BME280;47201;40.428;-8.436;2023-02-19T05:00:03;101430.81;;;12.03;68.11
61318;BME280;47201;40.428;-8.436;2023-02-19T05:02:04;101432.50;;;11.90;68.63
61318;BME280;47201;40.428;-8.436;2023-02-19T05:04:05;101441.13;;;11.71;71.28
61318;BME280;47201;40.428;-8.436;2023-02-19T05:06:06;101436.66;;;11.50;72.90
61318;BME280;47201;40.428;-8.436;2023-02-19T05:08:07;101439.09;;;11.26;74.36
61318;BME280;47201;40.428;-8.436;2023-02-19T05:10:26;101438.97;;;11.09;75.29
61318;BME280;47201;40.428;-8.436;2023-02-19T05:12:45;101438.84;;;10.92;76.49
61318;BME280;47201;40.428;-8.436;2023-02-19T05:15:04;101447.44;;;10.79;77.70
61318;BME280;47201;40.428;-8.436;2023-02-19T05:17:23;101443.84;;;10.68;79.84
61318;BME280;47201;40.428;-8.436;2023-02-19T05:19:24;101447.22;;;10.57;80.98
61318;BME280;47201;40.428;-8.436;2023-02-19T05:21:25;101443.47;;;10.34;82.62
61318;BME280;47201;40.428;-8.436;2023-02-19T05:23:44;101438.06;;;10.20;83.20
61318;BME280;47201;40.428;-8.436;2023-02-19T05:26:05;101444.00;;;10.06;83.55
61318;BME280;47201;40.428;-8.436;2023-02-19T05:28:24;101433.50;;;10.03;82.96
61318;BME280;47201;40.428;-8.436;2023-02-19T05:30:28;101434.53;;;10.14;82.09
61318;BME280;47201;40.428;-8.436;2023-02-19T05:32:47;101438.97;;;10.23;80.31
61318;BME280;47201;40.428;-8.436;2023-02-19T05:34:47;101430.59;;;10.49;77.33
61318;BME280;47201;40.428;-8.436;2023-02-19T05:36:48;101433.31;;;10.61;77.36
61318;BME280;47201;40.428;-8.436;2023-02-19T05:38:52;101433.38;;;10.69;76.66
61318;BME280;47201;40.428;-8.436;2023-02-19T05:41:13;101431.75;;;10.84;75.90
61318;BME280;47201;40.428;-8.436;2023-02-19T05:43:14;101429.19;;;10.88;74.94
61318;BME280;47201;40.428;-8.436;2023-02-19T05:45:34;101430.19;;;11.03;74.35
61318;BME280;47201;40.428;-8.436;2023-02-19T05:47:34;101429.44;;;11.16;73.08
61318;BME280;47201;40.428;-8.436;2023-02-19T05:49:35;101438.25;;;11.29;71.88
61318;BME280;47201;40.428;-8.436;2023-02-19T05:51:36;101431.34;;;11.40;71.28
61318;BME280;47201;40.428;-8.436;2023-02-19T05:53:36;101433.16;;;11.46;70.71
61318;BME280;47201;40.428;-8.436;2023-02-19T05:55:55;101427.06;;;11.56;69.76
61318;BME280;47201;40.428;-8.436;2023-02-19T05:57:57;101431.47;;;11.61;69.94
61318;BME280;47201;40.428;-8.436;2023-02-19T05:59:58;101430.59;;;11.58;69.38
61318;BME280;47201;40.428;-8.436;2023-02-19T06:01:58;101427.09;;;11.63;69.30
61318;BME280;47201;40.428;-8.436;2023-02-19T06:03:59;101432.38;;;11.67;68.85
61318;BME280;47201;40.428;-8.436;2023-02-19T06:05:59;101428.06;;;11.74;68.18
61318;BME280;47201;40.428;-8.436;2023-02-19T06:08:21;101437.72;;;11.87;67.63
61318;BME280;47201;40.428;-8.436;2023-02-19T06:10:21;101434.25;;;11.95;66.97
61318;BME280;47201;40.428;-8.436;2023-02-19T06:12:41;101432.50;;;11.94;67.79
61318;BME280;47201;40.428;-8.436;2023-02-19T06:14:42;101427.28;;;11.92;67.66
61318;BME280;47201;40.428;-8.436;2023-02-19T06:16:44;101433.34;;;11.85;68.07
61318;BME280;47201;40.428;-8.436;2023-02-19T06:19:03;101435.06;;;11.75;68.63
61318;BME280;47201;40.428;-8.436;2023-02-19T06:21:04;101435.00;;;11.66;68.92
61318;BME280;47201;40.428;-8.436;2023-02-19T06:23:26;101434.09;;;11.61;69.17
61318;BME280;47201;40.428;-8.436;2023-02-19T06:25:45;101432.34;;;11.61;69.41
61318;BME280;47201;40.428;-8.436;2023-02-19T06:27:45;101435.81;;;11.57;69.28
61318;BME280;47201;40.428;-8.436;2023-02-19T06:29:45;101441.94;;;11.56;69.38
61318;BME280;47201;40.428;-8.436;2023-02-19T06:31:46;101442.81;;;11.63;69.29
61318;BME280;47201;40.428;-8.436;2023-02-19T06:33:47;101437.59;;;11.61;69.29
61318;BME280;47201;40.428;-8.436;2023-02-19T06:36:12;101436.72;;;11.62;68.93
61318;BME280;47201;40.428;-8.436;2023-02-19T06:38:13;101435.75;;;11.51;69.40
61318;BME280;47201;40.428;-8.436;2023-02-19T06:40:13;101435.69;;;11.37;70.65
61318;BME280;47201;40.428;-8.436;2023-02-19T06:42:16;101436.53;;;11.31;70.99
61318;BME280;47201;40.428;-8.436;2023-02-19T06:44:16;101438.22;;;11.26;71.03
61318;BME280;47201;40.428;-8.436;2023-02-19T06:46:35;101434.66;;;11.15;71.68
61318;BME280;47201;40.428;-8.436;2023-02-19T06:48:37;101440.78;;;11.18;71.56
61318;BME280;47201;40.428;-8.436;2023-02-19T06:50:56;101445.22;;;11.29;70.80
61318;BME280;47201;40.428;-8.436;2023-02-19T06:53:15;101445.31;;;11.38;70.44
61318;BME280;47201;40.428;-8.436;2023-02-19T06:55:34;101439.25;;;11.45;69.63
61318;BME280;47201;40.428;-8.436;2023-02-19T06:57:53;101443.59;;;11.43;69.86
61318;BME280;47201;40.428;-8.436;2023-02-19T06:59:53;101441.84;;;11.47;69.74
61318;BME280;47201;40.428;-8.436;2023-02-19T07:01:54;101442.78;;;11.53;69.19
61318;BME280;47201;40.428;-8.436;2023-02-19T07:03:54;101444.50;;;11.54;69.32
61318;BME280;47201;40.428;-8.436;2023-02-19T07:06:17;101439.31;;;11.59;68.60
61318;BME280;47201;40.428;-8.436;2023-02-19T07:08:37;101436.72;;;11.62;68.44
61318;BME280;47201;40.428;-8.436;2023-02-19T07:10:38;101442.00;;;11.67;68.02
61318;BME280;47201;40.428;-8.436;2023-02-19T07:12:58;101443.72;;;11.66;68.24
61318;BME280;47201;40.428;-8.436;2023-02-19T07:14:59;101444.56;;;11.62;68.14
61318;BME280;47201;40.428;-8.436;2023-02-19T07:16:59;101457.66;;;11.62;68.61
61318;BME280;47201;40.428;-8.436;2023-02-19T07:19:00;101441.06;;;11.62;68.55
61318;BME280;47201;40.428;-8.436;2023-02-19T07:21:19;101450.69;;;11.61;68.46
61318;BME280;47201;40.428;-8.436;2023-02-19T07:23:20;101450.72;;;11.64;68.01
61318;BME280;47201;40.428;-8.436;2023-02-19T07:25:20;101446.34;;;11.63;68.28
61318;BME280;47201;40.428;-8.436;2023-02-19T07:27:22;101452.47;;;11.70;67.95
61318;BME280;47201;40.428;-8.436;2023-02-19T07:29:22;101442.88;;;11.69;68.01
61318;BME280;47201;40.428;-8.436;2023-02-19T07:31:41;101443.72;;;11.66;68.46
61318;BME280;47201;40.428;-8.436;2023-02-19T07:33:42;101451.56;;;11.65;68.60
61318;BME280;47201;40.428;-8.436;2023-02-19T07:35:44;101452.41;;;11.59;68.70
61318;BME280;47201;40.428;-8.436;2023-02-19T07:37:45;101453.25;;;11.53;68.43
61318;BME280;47201;40.428;-8.436;2023-02-19T07:40:04;101456.78;;;11.57;68.55
61318;BME280;47201;40.428;-8.436;2023-02-19T07:42:05;101456.78;;;11.62;68.36
61318;BME280;47201;40.428;-8.436;2023-02-19T07:44:06;101453.28;;;11.63;68.14
61318;BME280;47201;40.428;-8.436;2023-02-19T07:46:07;101457.69;;;11.65;67.61
61318;BME280;47201;40.428;-8.436;2023-02-19T07:48:28;101457.72;;;11.73;67.37
61318;BME280;47201;40.428;-8.436;2023-02-19T07:50:29;101455.13;;;11.79;66.97
61318;BME280;47201;40.428;-8.436;2023-02-19T07:52:29;101456.03;;;11.84;66.84
61318;BME280;47201;40.428;-8.436;2023-02-19T07:54:30;101456.03;;;11.84;67.06
61318;BME280;47201;40.428;-8.436;2023-02-19T07:56:30;101461.28;;;11.84;67.21
61318;BME280;47201;40.428;-8.436;2023-02-19T07:58:31;101458.69;;;11.87;66.87
61318;BME280;47201;40.428;-8.436;2023-02-19T08:00:50;101462.16;;;11.86;66.35
61318;BME280;47201;40.428;-8.436;2023-02-19T08:02:51;101470.09;;;11.94;66.21
61318;BME280;47201;40.428;-8.436;2023-02-19T08:05:00;101469.19;;;11.95;66.20
61318;BME280;47201;40.428;-8.436;2023-02-19T08:07:01;101470.16;;;12.08;65.52
61318;BME280;47201;40.428;-8.436;2023-02-19T08:09:02;101463.19;;;12.09;65.34
61318;BME280;47201;40.428;-8.436;2023-02-19T08:11:21;101480.66;;;12.11;65.73
61318;BME280;47201;40.428;-8.436;2023-02-19T08:13:59;101485.03;;;12.06;65.95
61318;BME280;47201;40.428;-8.436;2023-02-19T08:16:12;101483.28;;;12.05;66.00
61318;BME280;47201;40.428;-8.436;2023-02-19T08:18:15;101498.00;;;11.94;66.51
61318;BME280;47201;40.428;-8.436;2023-02-19T08:20:16;101493.63;;;11.89;66.86
61318;BME280;47201;40.428;-8.436;2023-02-19T08:22:35;101493.72;;;11.99;66.94
61318;BME280;47201;40.428;-8.436;2023-02-19T08:24:54;101488.38;;;11.88;67.54
61318;BME280;47201;40.428;-8.436;2023-02-19T08:26:54;101495.31;;;11.83;69.00
61318;BME280;47201;40.428;-8.436;2023-02-19T08:28:55;101490.03;;;11.72;69.66
61318;BME280;47201;40.428;-8.436;2023-02-19T08:31:14;101494.25;;;11.51;70.04
61318;BME280;47201;40.428;-8.436;2023-02-19T08:33:17;101493.28;;;11.40;70.66
61318;BME280;47201;40.428;-8.436;2023-02-19T08:35:36;101493.19;;;11.27;71.44
61318;BME280;47201;40.428;-8.436;2023-02-19T08:37:57;101494.06;;;11.26;72.05
61318;BME280;47201;40.428;-8.436;2023-02-19T08:40:17;101494.09;;;11.28;72.01
61318;BME280;47201;40.428;-8.436;2023-02-19T08:42:18;101494.19;;;11.39;71.18
61318;BME280;47201;40.428;-8.436;2023-02-19T08:44:18;101495.13;;;11.50;70.72
61318;BME280;47201;40.428;-8.436;2023-02-19T08:46:19;101494.34;;;11.61;70.26
61318;BME280;47201;40.428;-8.436;2023-02-19T08:48:19;101488.28;;;11.68;69.98
61318;BME280;47201;40.428;-8.436;2023-02-19T08:50:20;101490.06;;;11.78;68.75
61318;BME280;47201;40.428;-8.436;2023-02-19T08:52:21;101490.16;;;11.90;68.26
61318;BME280;47201;40.428;-8.436;2023-02-19T08:54:22;101492.84;;;11.98;68.31
61318;BME280;47201;40.428;-8.436;2023-02-19T08:56:41;101491.97;;;12.01;68.30
61318;BME280;47201;40.428;-8.436;2023-02-19T08:59:00;101487.63;;;12.03;68.38
61318;BME280;47201;40.428;-8.436;2023-02-19T09:01:00;101490.28;;;12.12;68.00
61318;BME280;47201;40.428;-8.436;2023-02-19T09:03:01;101494.63;;;12.12;67.90
61318;BME280;47201;40.428;-8.436;2023-02-19T09:05:01;101496.44;;;12.25;67.75
61318;BME280;47201;40.428;-8.436;2023-02-19T09:07:20;101493.03;;;12.45;66.43
61318;BME280;47201;40.428;-8.436;2023-02-19T09:09:22;101501.81;;;12.61;65.95
61318;BME280;47201;40.428;-8.436;2023-02-19T09:11:22;101496.56;;;12.67;65.66
61318;BME280;47201;40.428;-8.436;2023-02-19T09:13:23;101499.22;;;12.75;65.30
61318;BME280;47201;40.428;-8.436;2023-02-19T09:15:23;101507.13;;;12.84;65.17
61318;BME280;47201;40.428;-8.436;2023-02-19T09:17:25;101506.25;;;12.90;65.54
61318;BME280;47201;40.428;-8.436;2023-02-19T09:19:26;101507.13;;;12.84;67.03
61318;BME280;47201;40.428;-8.436;2023-02-19T09:21:27;101501.00;;;12.80;68.92
61318;BME280;47201;40.428;-8.436;2023-02-19T09:23:27;101503.63;;;12.80;68.93
61318;BME280;47201;40.428;-8.436;2023-02-19T09:25:46;101503.59;;;12.69;68.69
61318;BME280;47201;40.428;-8.436;2023-02-19T09:27:47;101506.19;;;12.56;69.61
61318;BME280;47201;40.428;-8.436;2023-02-19T09:29:47;101503.56;;;12.57;68.86
61318;BME280;47201;40.428;-8.436;2023-02-19T09:32:07;101502.69;;;12.57;69.00
61318;BME280;47201;40.428;-8.436;2023-02-19T09:34:26;101509.66;;;12.50;68.99
61318;BME280;47201;40.428;-8.436;2023-02-19T09:36:27;101495.66;;;12.51;69.75
61318;BME280;47201;40.428;-8.436;2023-02-19T09:38:27;101500.09;;;12.61;69.07
61318;BME280;47201;40.428;-8.436;2023-02-19T09:40:29;101502.69;;;12.63;68.00
61318;BME280;47201;40.428;-8.436;2023-02-19T09:42:48;101507.97;;;12.69;67.02
61318;BME280;47201;40.428;-8.436;2023-02-19T09:44:53;101502.72;;;12.72;67.42
61318;BME280;47201;40.428;-8.436;2023-02-19T09:46:56;101500.13;;;12.91;66.06
61318;BME280;47201;40.428;-8.436;2023-02-19T09:51:24;101495.75;;;13.11;65.20
61318;BME280;47201;40.428;-8.436;2023-02-19T09:53:46;101494.03;;;13.29;64.80
61318;BME280;47201;40.428;-8.436;2023-02-19T09:55:49;101489.63;;;13.34;65.33
61318;BME280;47201;40.428;-8.436;2023-02-19T09:57:49;101488.75;;;13.37;65.17
61318;BME280;47201;40.428;-8.436;2023-02-19T10:00:19;101498.44;;;13.42;65.21
61318;BME280;47201;40.428;-8.436;2023-02-19T10:02:39;101491.44;;;13.49;65.14
61318;BME280;47201;40.428;-8.436;2023-02-19T10:04:58;101494.91;;;13.68;64.82
61318;BME280;47201;40.428;-8.436;2023-02-19T10:06:59;101505.38;;;13.80;63.51
61318;BME280;47201;40.428;-8.436;2023-02-19T10:09:22;101505.38;;;13.82;63.51
61318;BME280;47201;40.428;-8.436;2023-02-19T10:11:44;101502.75;;;13.80;63.21
61318;BME280;47201;40.428;-8.436;2023-02-19T10:16:05;101505.34;;;13.98;63.12
61318;BME280;47201;40.428;-8.436;2023-02-19T10:18:10;101500.06;;;14.01;61.83
61318;BME280;47201;40.428;-8.436;2023-02-19T10:20:29;101497.41;;;14.08;62.28
61318;BME280;47201;40.428;-8.436;2023-02-19T10:22:56;101504.41;;;14.17;61.38
61318;BME280;47201;40.428;-8.436;2023-02-19T10:24:58;101506.13;;;14.21;61.85
61318;BME280;47201;40.428;-8.436;2023-02-19T10:26:59;101507.00;;;14.28;61.62
61318;BME280;47201;40.428;-8.436;2023-02-19T10:29:00;101508.72;;;14.32;61.46
61318;BME280;47201;40.428;-8.436;2023-02-19T10:31:03;101508.69;;;14.38;60.90
61318;BME280;47201;40.428;-8.436;2023-02-19T10:33:08;101504.31;;;14.40;61.85
61318;BME280;47201;40.428;-8.436;2023-02-19T10:35:28;101492.88;;;14.44;61.60
61318;BME280;47201;40.428;-8.436;2023-02-19T10:37:29;101499.03;;;14.48;62.17
61318;BME280;47201;40.428;-8.436;2023-02-19T10:39:46;101497.22;;;14.58;62.53
61318;BME280;47201;40.428;-8.436;2023-02-19T10:42:05;101492.81;;;14.57;62.07
61318;BME280;47201;40.428;-8.436;2023-02-19T10:44:14;101498.03;;;14.71;62.09
61318;BME280;47201;40.428;-8.436;2023-02-19T10:46:41;101505.81;;;14.93;62.60
61318;BME280;47201;40.428;-8.436;2023-02-19T10:49:05;101498.78;;;14.90;61.93
61318;BME280;47201;40.428;-8.436;2023-02-19T10:51:35;101496.91;;;15.04;60.90
61318;BME280;47201;40.428;-8.436;2023-02-19T10:56:30;101491.53;;;15.21;61.32
61318;BME280;47201;40.428;-8.436;2023-02-19T10:58:32;101490.53;;;15.35;60.04
61318;BME280;47201;40.428;-8.436;2023-02-19T11:00:41;101487.84;;;15.41;60.18
61318;BME280;47201;40.428;-8.436;2023-02-19T11:05:33;101494.66;;;15.64;59.29
61318;BME280;47201;40.428;-8.436;2023-02-19T11:07:54;101490.28;;;15.61;58.36
61318;BME280;47201;40.428;-8.436;2023-02-19T11:12:40;101490.00;;;15.91;59.31
61318;BME280;47201;40.428;-8.436;2023-02-19T11:15:12;101486.34;;;16.04;59.29
61318;BME280;47201;40.428;-8.436;2023-02-19T11:17:39;101487.09;;;16.15;58.71
61318;BME280;47201;40.428;-8.436;2023-02-19T11:19:59;101483.44;;;16.24;58.47
61318;BME280;47201;40.428;-8.436;2023-02-19T11:22:01;101479.81;;;16.34;59.23
61318;BME280;47201;40.428;-8.436;2023-02-19T11:24:02;101477.88;;;16.46;59.05
61318;BME280;47201;40.428;-8.436;2023-02-19T11:26:06;101479.38;;;16.65;58.25
61318;BME280;47201;40.428;-8.436;2023-02-19T11:28:34;101483.59;;;16.79;58.40
61318;BME280;47201;40.428;-8.436;2023-02-19T11:30:36;101479.88;;;16.92;57.32
61318;BME280;47201;40.428;-8.436;2023-02-19T11:33:03;101472.53;;;17.11;57.42
61318;BME280;47201;40.428;-8.436;2023-02-19T11:35:31;101467.75;;;17.35;55.74
61318;BME280;47201;40.428;-8.436;2023-02-19T11:37:31;101477.00;;;17.59;55.36
61318;BME280;47201;40.428;-8.436;2023-02-19T11:39:32;101470.97;;;18.00;55.20
61318;BME280;47201;40.428;-8.436;2023-02-19T11:43:52;101464.44;;;18.57;52.36
61318;BME280;47201;40.428;-8.436;2023-02-19T11:46:19;101463.31;;;18.69;52.00
61318;BME280;47201;40.428;-8.436;2023-02-19T11:48:35;101455.41;;;19.05;51.98
61318;BME280;47201;40.428;-8.436;2023-02-19T11:55:22;101456.22;;;18.69;58.33
61318;BME280;47201;40.428;-8.436;2023-02-19T11:59:39;101450.34;;;17.70;62.69